createdAt,value
2022-12-01T00:01:20.892Z,3.51
2022-12-01T00:03:48.828Z,3.43
2022-12-01T00:06:18.817Z,3.47
2022-12-01T00:09:02.269Z,3.56
2022-12-01T00:11:30.301Z,3.57
2022-12-01T00:13:59.396Z,3.60
2022-12-01T00:16:27.838Z,3.60
2022-12-01T00:18:55.832Z,3.53
2022-12-01T00:21:25.938Z,3.49
2022-12-01T00:23:55.361Z,3.51
2022-12-01T00:26:25.035Z,3.49
2022-12-01T00:28:54.237Z,3.48
2022-12-01T00:31:24.093Z,3.42
2022-12-01T00:33:51.939Z,3.44
2022-12-01T00:36:20.117Z,3.41
2022-12-01T00:38:48.054Z,3.41
2022-12-01T00:41:16.007Z,3.37
2022-12-01T00:43:43.707Z,3.39
2022-12-01T00:46:11.682Z,3.38
2022-12-01T00:48:40.897Z,3.41
2022-12-01T00:51:08.998Z,3.43
2022-12-01T00:53:36.643Z,3.42
2022-12-01T00:56:05.173Z,3.42
2022-12-01T00:58:32.804Z,3.42
2022-12-01T01:01:03.464Z,3.42
2022-12-01T01:03:31.967Z,3.44
2022-12-01T01:06:07.483Z,3.39
2022-12-01T01:08:35.489Z,3.40
2022-12-01T01:11:03.936Z,3.37
2022-12-01T01:13:32.059Z,3.37
2022-12-01T01:16:00.734Z,3.42
2022-12-01T01:18:29.513Z,3.46
2022-12-01T01:20:58.542Z,3.47
2022-12-01T01:23:28.311Z,3.49
2022-12-01T01:26:02.139Z,3.48
2022-12-01T01:28:30.998Z,3.55
2022-12-01T01:30:58.718Z,3.58
2022-12-01T01:33:27.283Z,3.62
2022-12-01T01:35:54.917Z,3.70
2022-12-01T01:38:23.731Z,3.71
2022-12-01T01:40:52.702Z,3.75
2022-12-01T01:43:49.430Z,3.72
2022-12-01T01:46:18.739Z,3.70
2022-12-01T01:48:51.077Z,3.67
2022-12-01T01:51:23.560Z,3.70
2022-12-01T01:53:55.377Z,3.61
2022-12-01T01:56:25.026Z,3.65
2022-12-01T01:58:53.893Z,3.65
2022-12-01T02:01:22.646Z,3.59
2022-12-01T02:03:54.066Z,3.57
2022-12-01T02:06:23.790Z,3.59
2022-12-01T02:08:52.005Z,3.60
2022-12-01T02:11:49.319Z,3.50
2022-12-01T02:14:40.179Z,3.53
2022-12-01T02:17:18.755Z,3.54
2022-12-01T02:20:11.322Z,3.57
2022-12-01T02:22:54.903Z,3.44
2022-12-01T02:25:37.137Z,3.54
2022-12-01T02:28:41.430Z,3.55
2022-12-01T02:31:17.236Z,3.56
2022-12-01T02:33:54.469Z,3.49
2022-12-01T02:36:33.540Z,3.45
2022-12-01T02:39:09.305Z,3.50
2022-12-01T02:41:40.837Z,3.52
2022-12-01T02:44:14.581Z,3.51
2022-12-01T02:46:50.657Z,3.47
2022-12-01T02:49:24.068Z,3.50
2022-12-01T02:51:53.912Z,3.53
2022-12-01T02:54:23.507Z,3.51
2022-12-01T02:56:53.401Z,3.43
2022-12-01T02:59:22.100Z,3.45
2022-12-01T03:02:05.478Z,3.49
2022-12-01T03:04:47.073Z,3.46
2022-12-01T03:07:33.281Z,3.45
2022-12-01T03:10:11.696Z,3.31
2022-12-01T03:12:53.248Z,3.33
2022-12-01T03:15:29.207Z,3.35
2022-12-01T03:18:06.921Z,3.15
2022-12-01T03:20:38.975Z,3.26
2022-12-01T03:23:10.779Z,3.30
2022-12-01T03:25:41.233Z,3.34
2022-12-01T03:28:21.276Z,3.36
2022-12-01T03:30:53.625Z,3.41
2022-12-01T03:33:27.948Z,3.47
2022-12-01T03:36:01.833Z,3.46
2022-12-01T03:38:31.910Z,3.46
2022-12-01T03:41:03.276Z,3.43
2022-12-01T03:43:35.719Z,3.47
2022-12-01T03:46:09.907Z,3.44
2022-12-01T03:48:40.694Z,3.38
2022-12-01T03:51:17.043Z,3.41
2022-12-01T03:53:54.452Z,3.57
2022-12-01T03:56:26.290Z,3.42
2022-12-01T03:58:58.199Z,3.43
2022-12-01T04:01:26.504Z,3.45
2022-12-01T04:03:55.917Z,3.51
2022-12-01T04:06:23.672Z,3.49
2022-12-01T04:08:51.347Z,3.52
2022-12-01T04:11:36.993Z,3.47
2022-12-01T04:14:05.009Z,3.50
2022-12-01T04:16:32.694Z,3.51
2022-12-01T04:19:02.161Z,3.49
2022-12-01T04:21:29.805Z,3.49
2022-12-01T04:24:04.285Z,3.49
2022-12-01T04:26:33.895Z,3.53
2022-12-01T04:29:02.515Z,3.52
2022-12-01T04:31:30.407Z,3.57
2022-12-01T04:33:59.509Z,3.56
2022-12-01T04:36:31.675Z,3.56
2022-12-01T04:39:00.368Z,3.53
2022-12-01T04:41:28.058Z,3.54
2022-12-01T04:43:56.952Z,3.56
2022-12-01T04:46:25.648Z,3.56
2022-12-01T04:48:54.174Z,3.59
2022-12-01T04:51:22.325Z,3.59
2022-12-01T04:53:52.184Z,3.62
2022-12-01T04:56:20.113Z,3.58
2022-12-01T04:58:48.412Z,3.56
2022-12-01T05:01:17.819Z,3.59
2022-12-01T05:03:49.458Z,3.57
2022-12-01T05:06:19.797Z,3.52
2022-12-01T05:08:47.991Z,3.60
2022-12-01T05:11:17.862Z,3.57
2022-12-01T05:13:48.092Z,3.64
2022-12-01T05:16:18.233Z,3.68
2022-12-01T05:18:49.548Z,3.68
2022-12-01T05:21:17.545Z,3.70
2022-12-01T05:23:45.659Z,3.71
2022-12-01T05:26:13.651Z,3.70
2022-12-01T05:28:43.021Z,3.72
2022-12-01T05:31:11.395Z,3.76
2022-12-01T05:33:39.097Z,3.78
2022-12-01T05:36:07.765Z,3.83
2022-12-01T05:38:35.404Z,3.82
2022-12-01T05:41:03.527Z,3.87
2022-12-01T05:43:31.183Z,3.89
2022-12-01T05:46:01.117Z,3.91
2022-12-01T05:48:28.874Z,3.91
2022-12-01T05:50:56.523Z,3.92
2022-12-01T05:53:24.216Z,3.94
2022-12-01T05:55:54.161Z,3.91
2022-12-01T05:58:21.900Z,3.88
2022-12-01T06:00:50.265Z,3.87
2022-12-01T06:03:19.399Z,3.84
2022-12-01T06:05:47.585Z,3.78
2022-12-01T06:08:15.437Z,3.69
2022-12-01T06:10:43.434Z,3.76
2022-12-01T06:13:11.094Z,3.77
2022-12-01T06:15:38.833Z,3.79
2022-12-01T06:18:06.678Z,3.77
2022-12-01T06:20:35.877Z,3.77
2022-12-01T06:23:03.862Z,3.81
2022-12-01T06:25:31.885Z,3.77
2022-12-01T06:27:59.786Z,3.75
2022-12-01T06:30:28.303Z,3.71
2022-12-01T06:32:56.002Z,3.76
2022-12-01T06:35:24.059Z,3.76
2022-12-01T06:37:53.941Z,3.79
2022-12-01T06:40:22.291Z,3.72
2022-12-01T06:42:49.989Z,3.69
2022-12-01T06:45:17.898Z,3.70
2022-12-01T06:47:48.033Z,3.64
2022-12-01T06:50:16.118Z,3.70
2022-12-01T06:52:43.761Z,3.73
2022-12-01T06:55:13.339Z,3.74
2022-12-01T06:57:43.199Z,3.75
2022-12-01T07:00:13.496Z,3.71
2022-12-01T07:02:41.659Z,3.78
2022-12-01T07:05:09.680Z,3.82
2022-12-01T07:07:38.185Z,3.86
2022-12-01T07:10:06.823Z,3.91
2022-12-01T07:12:36.170Z,3.94
2022-12-01T07:15:04.104Z,3.98
2022-12-01T07:17:32.353Z,3.98
2022-12-01T07:20:00.015Z,4.01
2022-12-01T07:22:32.852Z,4.04
2022-12-01T07:25:00.756Z,4.09
2022-12-01T07:27:30.787Z,4.19
2022-12-01T07:29:59.782Z,4.16
2022-12-01T07:32:28.206Z,4.16
2022-12-01T07:34:56.269Z,4.21
2022-12-01T07:37:24.481Z,4.24
2022-12-01T07:39:52.189Z,4.25
2022-12-01T07:42:20.329Z,4.29
2022-12-01T07:44:47.966Z,4.33
2022-12-01T07:47:17.841Z,4.39
2022-12-01T07:49:45.476Z,4.45
2022-12-01T07:52:13.779Z,4.49
2022-12-01T07:54:41.439Z,4.53
2022-12-01T07:57:09.381Z,4.56
2022-12-01T07:59:37.036Z,4.60
2022-12-01T08:02:05.472Z,4.69
2022-12-01T08:04:34.574Z,4.74
2022-12-01T08:07:02.880Z,4.82
2022-12-01T08:09:30.828Z,4.94
2022-12-01T08:11:58.668Z,5.01
2022-12-01T08:14:26.327Z,5.09
2022-12-01T08:16:54.308Z,5.10
2022-12-01T08:19:21.924Z,5.04
2022-12-01T08:21:51.565Z,5.06
2022-12-01T08:24:19.583Z,4.88
2022-12-01T08:26:47.524Z,5.03
2022-12-01T08:29:19.914Z,4.99
2022-12-01T08:31:49.093Z,4.96
2022-12-01T08:34:16.741Z,5.01
2022-12-01T08:36:44.997Z,5.05
2022-12-01T08:39:14.162Z,5.12
2022-12-01T08:41:41.883Z,5.19
2022-12-01T08:44:10.903Z,5.31
2022-12-01T08:46:39.428Z,5.24
2022-12-01T08:49:07.780Z,5.23
2022-12-01T08:51:36.708Z,5.20
2022-12-01T08:54:05.489Z,5.12
2022-12-01T08:56:37.064Z,5.00
2022-12-01T08:59:05.654Z,4.99
2022-12-01T09:01:33.961Z,5.06
2022-12-01T09:04:07.958Z,4.97
2022-12-01T09:06:40.061Z,4.91
2022-12-01T09:09:08.646Z,4.91
2022-12-01T09:11:37.934Z,4.90
2022-12-01T09:14:06.243Z,4.82
2022-12-01T09:16:33.997Z,4.89
2022-12-01T09:19:01.981Z,4.95
2022-12-01T09:21:31.328Z,4.92
2022-12-01T09:24:00.454Z,4.87
2022-12-01T09:26:29.130Z,4.87
2022-12-01T09:29:01.269Z,4.86
2022-12-01T09:31:29.745Z,4.90
2022-12-01T09:33:58.533Z,4.85
2022-12-01T09:36:26.761Z,4.97
2022-12-01T09:38:54.794Z,4.93
2022-12-01T09:41:25.343Z,5.01
2022-12-01T09:44:01.691Z,5.03
2022-12-01T09:46:34.245Z,5.05
2022-12-01T09:49:04.592Z,5.12
2022-12-01T09:51:36.124Z,5.13
2022-12-01T09:54:04.857Z,5.18
2022-12-01T09:56:44.160Z,5.19
2022-12-01T09:59:22.630Z,5.20
2022-12-01T10:01:54.645Z,5.19
2022-12-01T10:04:29.474Z,5.28
2022-12-01T10:07:01.017Z,5.27
2022-12-01T10:09:36.271Z,5.33
2022-12-01T10:12:14.211Z,5.37
2022-12-01T10:14:45.913Z,5.42
2022-12-01T10:17:27.067Z,5.45
2022-12-01T10:20:02.663Z,5.41
2022-12-01T10:22:46.642Z,5.36
2022-12-01T10:25:22.095Z,5.30
2022-12-01T10:28:04.208Z,5.18
2022-12-01T10:30:41.757Z,5.20
2022-12-01T10:33:18.654Z,5.17
2022-12-01T10:35:46.374Z,5.15
2022-12-01T10:38:23.320Z,5.08
2022-12-01T10:40:53.325Z,5.12
2022-12-01T10:43:30.089Z,5.14
2022-12-01T10:46:01.706Z,5.17
2022-12-01T10:48:29.786Z,5.17
2022-12-01T10:51:15.786Z,5.18
2022-12-01T10:53:43.444Z,5.18
2022-12-01T10:56:18.263Z,5.08
2022-12-01T10:58:48.938Z,5.07
2022-12-01T11:01:21.524Z,5.09
2022-12-01T11:03:56.118Z,5.16
2022-12-01T11:06:28.532Z,5.21
2022-12-01T11:08:59.068Z,5.11
2022-12-01T11:11:31.470Z,5.18
2022-12-01T11:14:02.442Z,5.20
2022-12-01T11:16:38.656Z,5.23
2022-12-01T11:19:28.513Z,5.25
2022-12-01T11:21:57.989Z,5.26
2022-12-01T11:24:40.988Z,5.24
2022-12-01T11:27:17.303Z,5.25
2022-12-01T11:29:47.914Z,5.22
2022-12-01T11:32:24.504Z,5.19
2022-12-01T11:34:57.014Z,5.21
2022-12-01T11:37:30.042Z,5.23
2022-12-01T11:40:08.088Z,5.26
2022-12-01T11:42:37.021Z,5.23
2022-12-01T11:45:10.030Z,5.21
2022-12-01T11:48:03.185Z,5.27
2022-12-01T11:50:33.553Z,5.31
2022-12-01T11:53:01.383Z,5.31
2022-12-01T11:55:30.971Z,5.31
2022-12-01T11:58:02.680Z,5.27
2022-12-01T12:00:35.776Z,5.29
2022-12-01T12:03:19.627Z,5.32
2022-12-01T12:06:32.289Z,5.43
2022-12-01T12:09:12.617Z,5.47
2022-12-01T12:11:50.964Z,5.54
2022-12-01T12:14:41.769Z,5.48
2022-12-01T12:17:25.230Z,5.55
2022-12-01T12:20:09.492Z,5.62
2022-12-01T12:22:49.722Z,5.61
2022-12-01T12:25:28.559Z,5.62
2022-12-01T12:28:11.163Z,5.67
2022-12-01T12:30:43.555Z,5.73
2022-12-01T12:33:50.693Z,5.80
2022-12-01T12:36:31.514Z,5.92
2022-12-01T12:39:16.381Z,5.97
2022-12-01T12:41:47.229Z,6.03
2022-12-01T12:44:43.755Z,6.17
2022-12-01T12:47:26.441Z,6.26
2022-12-01T12:50:03.438Z,6.27
2022-12-01T12:52:36.655Z,6.28
2022-12-01T12:55:14.462Z,6.21
2022-12-01T12:57:46.425Z,6.26
2022-12-01T13:00:18.093Z,6.31
2022-12-01T13:02:49.630Z,6.32
2022-12-01T13:05:21.529Z,6.25
2022-12-01T13:07:56.242Z,6.19
2022-12-01T13:10:30.904Z,6.21
2022-12-01T13:13:05.357Z,6.09
2022-12-01T13:15:36.756Z,6.07
2022-12-01T13:18:13.526Z,6.10
2022-12-01T13:20:42.517Z,6.11
2022-12-01T13:23:17.535Z,6.09
2022-12-01T13:25:50.162Z,5.98
2022-12-01T13:28:22.026Z,5.93
2022-12-01T13:31:05.661Z,5.83
2022-12-01T13:33:35.712Z,5.82
2022-12-01T13:39:03.709Z,5.87
2022-12-01T13:41:34.481Z,5.80
2022-12-01T13:44:06.993Z,5.80
2022-12-01T13:46:53.041Z,5.69
2022-12-01T13:49:41.971Z,5.70
2022-12-01T13:52:28.791Z,5.63
2022-12-01T13:55:24.077Z,5.61
2022-12-01T13:58:41.543Z,5.55
2022-12-01T14:01:47.122Z,5.57
2022-12-01T14:04:31.827Z,5.58
2022-12-01T14:07:27.822Z,5.57
2022-12-01T14:10:08.219Z,5.57
2022-12-01T14:12:41.853Z,5.59
2022-12-01T14:15:28.699Z,5.54
2022-12-01T14:18:03.621Z,5.50
2022-12-01T14:20:35.273Z,5.44
2022-12-01T14:23:24.070Z,5.43
2022-12-01T14:26:17.805Z,5.34
2022-12-01T14:29:38.287Z,5.33
2022-12-01T14:32:23.901Z,5.28
2022-12-01T14:34:59.207Z,5.21
2022-12-01T14:37:36.834Z,5.21
2022-12-01T14:40:09.355Z,5.23
2022-12-01T14:42:58.096Z,5.21
2022-12-01T14:45:31.795Z,5.18
2022-12-01T14:48:04.451Z,5.17
2022-12-01T14:50:46.618Z,5.18
2022-12-01T14:53:22.914Z,5.14
2022-12-01T14:55:56.200Z,5.14
2022-12-01T14:58:27.504Z,5.12
2022-12-01T15:05:13.555Z,5.09
2022-12-01T15:07:43.294Z,5.11
2022-12-01T15:10:18.165Z,5.12
2022-12-01T15:12:46.204Z,5.09
2022-12-01T15:15:23.599Z,5.11
2022-12-01T15:17:53.035Z,5.10
2022-12-01T15:20:33.944Z,5.12
2022-12-01T15:23:03.731Z,5.12
2022-12-01T15:25:37.006Z,5.11
2022-12-01T15:28:13.419Z,5.11
2022-12-01T15:30:42.407Z,5.07
2022-12-01T15:33:17.295Z,5.09
2022-12-01T15:35:47.364Z,5.07
2022-12-01T15:38:18.546Z,5.04
2022-12-01T15:43:38.424Z,4.97
2022-12-01T15:46:13.830Z,4.96
2022-12-01T15:48:41.971Z,4.92
2022-12-01T15:51:15.529Z,4.95
2022-12-01T15:53:49.402Z,4.96
2022-12-01T15:56:18.260Z,4.97
2022-12-01T15:58:47.801Z,4.94
2022-12-01T16:01:18.231Z,4.91
2022-12-01T16:03:52.686Z,4.91
2022-12-01T16:06:25.055Z,4.85
2022-12-01T16:08:59.156Z,4.84
2022-12-01T16:11:27.591Z,4.85
2022-12-01T16:14:01.505Z,4.88
2022-12-01T16:16:37.148Z,4.89
2022-12-01T16:19:23.054Z,4.89
2022-12-01T16:21:55.405Z,4.91
2022-12-01T16:24:27.779Z,4.91
2022-12-01T16:26:59.572Z,4.83
2022-12-01T16:29:29.770Z,4.82
2022-12-01T16:34:49.471Z,4.88
2022-12-01T16:37:18.496Z,4.91
2022-12-01T16:39:46.821Z,4.92
2022-12-01T16:42:16.003Z,4.88
2022-12-01T16:44:44.798Z,4.82
2022-12-01T16:47:17.938Z,4.80
2022-12-01T16:49:45.896Z,4.76
2022-12-01T16:52:42.965Z,4.72
2022-12-01T16:55:03.105Z,4.73
2022-12-01T16:57:30.735Z,4.71
2022-12-01T16:59:58.731Z,4.72
2022-12-01T17:02:26.433Z,4.70
2022-12-01T17:04:54.359Z,4.71
2022-12-01T17:07:22.125Z,4.71
2022-12-01T17:09:49.943Z,4.69
2022-12-01T17:12:18.898Z,4.68
2022-12-01T17:14:46.681Z,4.70
2022-12-01T17:17:14.295Z,4.68
2022-12-01T17:19:42.170Z,4.70
2022-12-01T17:22:09.846Z,4.68
2022-12-01T17:24:38.181Z,4.70
2022-12-01T17:27:05.839Z,4.75
2022-12-01T17:29:35.282Z,4.79
2022-12-01T17:32:02.950Z,4.80
2022-12-01T17:34:30.814Z,4.81
2022-12-01T17:36:58.689Z,4.85
2022-12-01T17:39:26.616Z,4.80
2022-12-01T17:41:55.111Z,4.82
2022-12-01T17:44:23.185Z,4.81
2022-12-01T17:46:52.257Z,4.78
2022-12-01T17:49:20.447Z,4.75
2022-12-01T17:51:48.174Z,4.76
2022-12-01T17:54:17.019Z,4.79
2022-12-01T17:56:44.807Z,4.82
2022-12-01T17:59:13.110Z,4.80
2022-12-01T18:01:41.965Z,4.79
2022-12-01T18:04:11.336Z,4.74
2022-12-01T18:06:39.156Z,4.65
2022-12-01T18:09:07.667Z,4.52
2022-12-01T18:11:35.402Z,4.36
2022-12-01T18:14:04.111Z,4.39
2022-12-01T18:16:33.386Z,4.46
2022-12-01T18:19:02.516Z,4.47
2022-12-01T18:21:31.648Z,4.44
2022-12-01T18:24:01.171Z,4.47
2022-12-01T18:26:29.948Z,4.52
2022-12-01T18:28:59.776Z,4.51
2022-12-01T18:31:28.662Z,4.40
2022-12-01T18:33:58.890Z,4.51
2022-12-01T18:36:27.432Z,4.53
2022-12-01T18:38:59.140Z,4.51
2022-12-01T18:41:27.553Z,4.51
2022-12-01T18:43:55.548Z,4.56
2022-12-01T18:46:23.891Z,4.62
2022-12-01T18:48:53.707Z,4.62
2022-12-01T18:51:22.079Z,4.64
2022-12-01T18:53:50.158Z,4.70
2022-12-01T18:56:19.857Z,4.71
2022-12-01T18:58:47.599Z,4.66
2022-12-01T19:01:20.852Z,4.60
2022-12-01T19:03:48.878Z,4.57
2022-12-01T19:06:17.040Z,4.59
2022-12-01T19:08:47.394Z,4.61
2022-12-01T19:11:16.155Z,4.65
2022-12-01T19:13:45.315Z,4.68
2022-12-01T19:16:16.210Z,4.66
2022-12-01T19:18:44.493Z,4.68
2022-12-01T19:21:15.169Z,4.69
2022-12-01T19:23:43.769Z,4.73
2022-12-01T19:26:15.527Z,4.73
2022-12-01T19:28:45.353Z,4.76
2022-12-01T19:31:18.073Z,4.71
2022-12-01T19:33:45.904Z,4.76
2022-12-01T19:36:15.576Z,4.66
2022-12-01T19:38:44.423Z,4.63
2022-12-01T19:41:14.208Z,4.66
2022-12-01T19:43:43.147Z,4.72
2022-12-01T19:46:15.011Z,4.63
2022-12-01T19:48:44.205Z,4.62
2022-12-01T19:51:25.001Z,4.63
2022-12-01T19:53:52.974Z,4.68
2022-12-01T19:56:21.775Z,4.73
2022-12-01T19:58:50.685Z,4.75
2022-12-01T20:01:20.185Z,4.77
2022-12-01T20:03:51.272Z,4.74
2022-12-01T20:06:21.152Z,4.73
2022-12-01T20:08:49.304Z,4.66
2022-12-01T20:11:17.400Z,4.57
2022-12-01T20:13:47.088Z,4.64
2022-12-01T20:16:16.888Z,4.65
2022-12-01T20:18:45.520Z,4.65
2022-12-01T20:21:17.427Z,4.66
2022-12-01T20:23:46.690Z,4.71
2022-12-01T20:26:16.192Z,4.70
2022-12-01T20:28:45.353Z,4.69
2022-12-01T20:31:16.931Z,4.70
2022-12-01T20:33:44.663Z,4.68
2022-12-01T20:36:14.467Z,4.69
2022-12-01T20:38:42.646Z,4.68
2022-12-01T20:41:11.786Z,4.67
2022-12-01T20:43:39.741Z,4.63
2022-12-01T20:46:08.512Z,4.63
2022-12-01T20:48:36.525Z,4.63
2022-12-01T20:51:06.004Z,4.57
2022-12-01T20:53:36.025Z,4.60
2022-12-01T20:56:03.925Z,4.60
2022-12-01T20:58:37.032Z,4.62
2022-12-01T21:01:08.692Z,4.62
2022-12-01T21:03:36.437Z,4.60
2022-12-01T21:06:04.111Z,4.59
2022-12-01T21:08:32.326Z,4.55
2022-12-01T21:11:05.717Z,4.64
2022-12-01T21:13:39.561Z,4.59
2022-12-01T21:16:14.195Z,4.59
2022-12-01T21:18:51.742Z,4.59
2022-12-01T21:21:24.245Z,4.57
2022-12-01T21:24:04.699Z,4.56
2022-12-01T21:26:33.759Z,4.53
2022-12-01T21:29:01.859Z,4.51
2022-12-01T21:31:29.566Z,4.48
2022-12-01T21:33:57.423Z,4.51
2022-12-01T21:36:29.629Z,4.43
2022-12-01T21:39:10.589Z,4.45
2022-12-01T21:41:39.576Z,4.41
2022-12-01T21:44:14.577Z,4.41
2022-12-01T21:46:42.524Z,4.45
2022-12-01T21:49:18.573Z,4.49
2022-12-01T21:51:47.429Z,4.46
2022-12-01T21:54:19.793Z,4.51
2022-12-01T21:56:49.740Z,4.49
2022-12-01T21:59:21.076Z,4.51
2022-12-01T22:01:51.630Z,4.48
2022-12-01T22:04:22.489Z,4.47
2022-12-01T22:06:53.263Z,4.46
2022-12-01T22:09:25.973Z,4.43
2022-12-01T22:11:57.221Z,4.45
2022-12-01T22:14:29.899Z,4.42
2022-12-01T22:17:00.251Z,4.45
2022-12-01T22:19:31.461Z,4.45
2022-12-01T22:22:02.798Z,4.48
2022-12-01T22:24:38.743Z,4.51
2022-12-01T22:27:30.248Z,4.53
2022-12-01T22:30:00.383Z,4.51
2022-12-01T22:32:47.405Z,4.50
2022-12-01T22:35:35.923Z,4.52
2022-12-01T22:38:35.497Z,4.50
2022-12-01T22:41:06.472Z,4.50
2022-12-01T22:43:47.253Z,4.51
2022-12-01T22:46:31.244Z,4.52
2022-12-01T22:49:02.277Z,4.46
2022-12-01T22:51:40.544Z,4.50
2022-12-01T22:54:25.868Z,4.53
2022-12-01T22:57:04.743Z,4.54
2022-12-01T22:59:36.410Z,4.50
2022-12-01T23:02:20.404Z,4.51
2022-12-01T23:04:49.384Z,4.53
2022-12-01T23:07:32.688Z,4.54
2022-12-01T23:10:12.195Z,4.56
2022-12-01T23:12:40.065Z,4.59
2022-12-01T23:15:23.043Z,4.54
2022-12-01T23:17:51.591Z,4.56
2022-12-01T23:20:32.654Z,4.57
2022-12-01T23:23:02.397Z,4.51
2022-12-01T23:25:30.819Z,4.38
2022-12-01T23:28:01.719Z,4.45
2022-12-01T23:30:30.789Z,4.53
2022-12-01T23:33:07.581Z,4.46
2022-12-01T23:35:40.652Z,4.51
2022-12-01T23:38:15.676Z,4.53
2022-12-01T23:40:44.252Z,4.53
2022-12-01T23:43:18.507Z,4.53
2022-12-01T23:45:51.594Z,4.54
2022-12-01T23:48:22.910Z,4.57
2022-12-01T23:50:53.790Z,4.56
2022-12-01T23:53:27.907Z,4.55
2022-12-01T23:55:58.205Z,4.54
2022-12-01T23:58:26.213Z,4.53
